Handytankers Marvel — V7OZ3 — position and weather

sailwx.info

Track history (hours):
 
Tides and Currents Weather Stations Pressure Air Temp Water Temp Dewpoint Dewpoint Depression Visibility Wind Speed Wind Dir Waves Ship Positions

Handytankers Marvel

Last reported at 2014-Sep-11 23:19 UTC. Time now 2014-Sep-16 00:58 UTC.
Position N 01°12' E 103°33'.

Length 183 m; draft 6.3 m.

Type: Tanker. MMSI: 538003191.

Date/timePositionNaut miles runAvg speedWind from/ knotsBaromVisibWave heightAir tempDewpointWater temp
2014-Sep-11 23:19N 01°12' E 103°33'9 0.4
2014-Sep-11 02:10N 01°15' E 103°42'4 5.0
2014-Sep-11 01:25N 01°16' E 103°45'3 2.7
2014-Sep-11 00:07N 01°14' E 103°48'0 0.0
2014-Sep-10 22:05N 01°14' E 103°48'0 0.0
2014-Sep-10 21:17N 01°14' E 103°48'0 0.0
2014-Sep-10 20:18N 01°14' E 103°48'0 0.1
2014-Sep-10 19:06N 01°14' E 103°48'0 0.1
2014-Sep-10 18:31N 01°14' E 103°48'0 0.0
2014-Sep-10 17:22N 01°14' E 103°48'0 0.0
2014-Sep-10 11:32N 01°14' E 103°48'0 0.2
2014-Sep-10 10:33N 01°14' E 103°48'6 0.1
2014-Sep-08 08:30N 01°14' E 103°42'2 0.1
2014-Sep-07 04:25N 01°14' E 103°44'3 3.0
2014-Sep-07 03:27N 01°13' E 103°41'  
Track history (hours):
 
Tides and Currents Weather Stations Pressure Air Temp Water Temp Dewpoint Dewpoint Depression Visibility Wind Speed Wind Dir Waves Ship Positions

Handytankers Marvel

Last reported at 2014-Sep-11 23:19 UTC. Time now 2014-Sep-16 00:58 UTC.
Position N 01°12' E 103°33'.

Length 183 m; draft 6.3 m.

Type: Tanker. MMSI: 538003191.

Date/timePositionNaut miles runAvg speedWind from/ knotsBaromVisibWave heightAir tempDewpointWater temp
2014-Sep-11 23:19N 01°12' E 103°33'9 0.4
2014-Sep-11 02:10N 01°15' E 103°42'4 5.0
2014-Sep-11 01:25N 01°16' E 103°45'3 2.7
2014-Sep-11 00:07N 01°14' E 103°48'0 0.0
2014-Sep-10 22:05N 01°14' E 103°48'0 0.0
2014-Sep-10 21:17N 01°14' E 103°48'0 0.0
2014-Sep-10 20:18N 01°14' E 103°48'0 0.1
2014-Sep-10 19:06N 01°14' E 103°48'0 0.1
2014-Sep-10 18:31N 01°14' E 103°48'0 0.0
2014-Sep-10 17:22N 01°14' E 103°48'0 0.0
2014-Sep-10 11:32N 01°14' E 103°48'0 0.2
2014-Sep-10 10:33N 01°14' E 103°48'6 0.1
2014-Sep-08 08:30N 01°14' E 103°42'2 0.1
2014-Sep-07 04:25N 01°14' E 103°44'3 3.0
2014-Sep-07 03:27N 01°13' E 103°41'  

Dump ship's entire track history